createdAt,value
2018-08-10T00:00:18.607Z,23.43
2018-08-10T00:00:50.677Z,23.48
2018-08-10T00:01:22.754Z,23.49
2018-08-10T00:01:54.834Z,23.46
2018-08-10T00:02:26.909Z,23.41
2018-08-10T00:02:59.006Z,23.45
2018-08-10T00:03:31.089Z,23.45
2018-08-10T00:04:03.194Z,23.41
2018-08-10T00:04:35.293Z,23.44
2018-08-10T00:05:07.380Z,23.49
2018-08-10T00:05:39.448Z,23.50
2018-08-10T00:06:11.575Z,23.55
2018-08-10T00:06:43.658Z,23.54
2018-08-10T00:07:15.720Z,23.55
2018-08-10T00:07:47.801Z,23.54
2018-08-10T00:08:19.853Z,23.56
2018-08-10T00:08:51.935Z,23.55
2018-08-10T00:09:24.010Z,23.54
2018-08-10T00:09:56.085Z,23.50
2018-08-10T00:10:28.159Z,23.49
2018-08-10T00:11:00.217Z,23.50
2018-08-10T00:11:32.342Z,23.48
2018-08-10T00:12:04.390Z,23.50
2018-08-10T00:12:36.440Z,23.58
2018-08-10T00:13:08.499Z,23.62
2018-08-10T00:13:40.561Z,23.67
2018-08-10T00:14:12.634Z,23.67
2018-08-10T00:14:44.693Z,23.68
2018-08-10T00:15:16.748Z,23.67
2018-08-10T00:15:48.847Z,23.67
2018-08-10T00:16:20.917Z,23.68
2018-08-10T00:16:53.003Z,23.66
2018-08-10T00:17:25.070Z,23.61
2018-08-10T00:17:57.170Z,23.58
2018-08-10T00:18:29.241Z,23.52
2018-08-10T00:19:01.290Z,23.49
2018-08-10T00:19:33.363Z,23.47
2018-08-10T00:20:05.422Z,23.50
2018-08-10T00:20:37.466Z,23.52
2018-08-10T00:21:09.537Z,23.47
2018-08-10T00:21:41.622Z,23.44
2018-08-10T00:22:13.701Z,23.42
2018-08-10T00:22:45.770Z,23.39
2018-08-10T00:23:17.833Z,23.37
2018-08-10T00:23:49.901Z,23.45
2018-08-10T00:24:21.978Z,23.44
2018-08-10T00:24:54.077Z,23.42
2018-08-10T00:25:26.134Z,23.51
2018-08-10T00:25:58.202Z,23.52
2018-08-10T00:26:30.285Z,23.60
2018-08-10T00:27:02.351Z,23.62
2018-08-10T00:27:34.416Z,23.60
2018-08-10T00:28:06.481Z,23.61
2018-08-10T00:28:38.572Z,23.54
2018-08-10T00:29:10.657Z,23.54
2018-08-10T00:29:42.728Z,23.56
2018-08-10T00:30:14.787Z,23.55
2018-08-10T00:30:46.854Z,23.56
2018-08-10T00:31:18.912Z,23.47
2018-08-10T00:31:51.065Z,23.39
2018-08-10T00:32:23.098Z,23.40
2018-08-10T00:32:55.173Z,23.46
2018-08-10T00:33:27.338Z,23.35
2018-08-10T00:33:59.414Z,23.37
2018-08-10T00:34:31.475Z,23.33
2018-08-10T00:35:03.552Z,23.36
2018-08-10T00:35:35.601Z,23.35
2018-08-10T00:36:07.708Z,23.36
2018-08-10T00:36:39.758Z,23.25
2018-08-10T00:37:11.842Z,23.25
2018-08-10T00:37:43.896Z,23.26
2018-08-10T00:38:15.997Z,23.23
2018-08-10T00:38:48.042Z,23.24
2018-08-10T00:39:20.097Z,23.26
2018-08-10T00:39:52.160Z,23.26
2018-08-10T00:40:24.214Z,23.32
2018-08-10T00:40:56.291Z,23.29
2018-08-10T00:41:28.366Z,23.33
2018-08-10T00:42:00.439Z,23.37
2018-08-10T00:42:32.502Z,23.39
2018-08-10T00:43:04.556Z,23.47
2018-08-10T00:43:36.629Z,23.50
2018-08-10T00:44:08.770Z,23.52
2018-08-10T00:44:40.830Z,23.55
2018-08-10T00:45:12.909Z,23.58
2018-08-10T00:45:44.966Z,23.58
2018-08-10T00:46:17.033Z,23.59
2018-08-10T00:46:49.093Z,23.54
2018-08-10T00:47:21.160Z,23.57
2018-08-10T00:47:53.240Z,23.51
2018-08-10T00:48:25.306Z,23.53
2018-08-10T00:48:57.368Z,23.54
2018-08-10T00:49:29.441Z,23.51
2018-08-10T00:50:01.505Z,23.50
2018-08-10T00:50:33.577Z,23.54
2018-08-10T00:51:05.638Z,23.46
2018-08-10T00:51:37.700Z,23.39
2018-08-10T00:52:09.778Z,23.33
2018-08-10T00:52:41.906Z,23.35
2018-08-10T00:53:13.957Z,23.36
2018-08-10T00:53:46.006Z,23.37
2018-08-10T00:54:18.075Z,23.35
2018-08-10T00:54:50.141Z,23.38
2018-08-10T00:55:22.224Z,23.40
2018-08-10T00:55:54.271Z,23.46
2018-08-10T00:56:26.366Z,23.48
2018-08-10T00:56:58.420Z,23.40
2018-08-10T00:57:30.500Z,23.45
2018-08-10T00:58:02.593Z,23.46
2018-08-10T00:58:34.636Z,23.45
2018-08-10T00:59:06.695Z,23.43
2018-08-10T00:59:38.752Z,23.44
2018-08-10T01:00:10.814Z,23.41
2018-08-10T01:00:42.892Z,23.46
2018-08-10T01:01:14.953Z,23.45
2018-08-10T01:01:47.014Z,23.50
2018-08-10T01:02:19.065Z,23.52
2018-08-10T01:02:51.175Z,23.49
2018-08-10T01:03:23.231Z,23.51
2018-08-10T01:03:55.301Z,23.54
2018-08-10T01:04:27.374Z,23.56
2018-08-10T01:04:59.445Z,23.53
2018-08-10T01:05:31.536Z,23.41
2018-08-10T01:06:03.630Z,23.37
2018-08-10T01:06:35.746Z,23.34
2018-08-10T01:07:07.850Z,23.37
2018-08-10T01:07:39.938Z,23.38
2018-08-10T01:08:11.985Z,23.42
2018-08-10T01:08:44.058Z,23.45
2018-08-10T01:09:16.105Z,23.42
2018-08-10T01:09:48.177Z,23.38
2018-08-10T01:10:20.234Z,23.38
2018-08-10T01:10:52.313Z,23.40
2018-08-10T01:11:24.372Z,23.43
2018-08-10T01:11:56.445Z,23.45
2018-08-10T01:12:28.541Z,23.47
2018-08-10T01:13:00.616Z,23.48
2018-08-10T01:13:32.786Z,23.47
2018-08-10T01:14:04.724Z,23.47
2018-08-10T01:14:36.789Z,23.48
2018-08-10T01:15:08.857Z,23.49
2018-08-10T01:15:40.914Z,23.49
2018-08-10T01:16:12.978Z,23.49
2018-08-10T01:16:45.041Z,23.48
2018-08-10T01:17:17.116Z,23.50
2018-08-10T01:17:49.188Z,23.53
2018-08-10T01:18:21.239Z,23.46
2018-08-10T01:18:53.302Z,23.43
2018-08-10T01:19:25.399Z,23.48
2018-08-10T01:19:57.423Z,23.48
2018-08-10T01:20:29.490Z,23.47
2018-08-10T01:21:01.543Z,23.47
2018-08-10T01:21:33.602Z,23.52
2018-08-10T01:22:05.682Z,23.62
2018-08-10T01:22:37.803Z,23.72
2018-08-10T01:23:09.859Z,23.71
2018-08-10T01:23:41.913Z,23.62
2018-08-10T01:24:13.981Z,23.58
2018-08-10T01:24:46.040Z,23.54
2018-08-10T01:25:18.174Z,23.50
2018-08-10T01:25:50.242Z,23.55
2018-08-10T01:26:22.304Z,23.52
2018-08-10T01:26:54.373Z,23.50
2018-08-10T01:27:26.435Z,23.48
2018-08-10T01:27:58.514Z,23.50
2018-08-10T01:28:30.654Z,23.59
2018-08-10T01:29:02.658Z,23.68
2018-08-10T01:29:34.706Z,23.65
2018-08-10T01:30:06.765Z,23.56
2018-08-10T01:30:38.836Z,23.52
2018-08-10T01:31:10.927Z,23.51
2018-08-10T01:31:42.978Z,23.48
2018-08-10T01:32:15.042Z,23.46
2018-08-10T01:32:47.130Z,23.42
2018-08-10T01:33:19.187Z,23.41
2018-08-10T01:33:51.261Z,23.45
2018-08-10T01:34:23.324Z,23.47
2018-08-10T01:34:55.445Z,23.47
2018-08-10T01:35:27.544Z,23.46
2018-08-10T01:35:59.627Z,23.48
2018-08-10T01:36:31.688Z,23.51
2018-08-10T01:37:03.751Z,23.62
2018-08-10T01:37:35.811Z,23.62
2018-08-10T01:38:07.879Z,23.53
2018-08-10T01:38:39.946Z,23.49
2018-08-10T01:39:12.036Z,23.43
2018-08-10T01:39:44.080Z,23.37
2018-08-10T01:40:16.146Z,23.34
2018-08-10T01:40:48.208Z,23.35
2018-08-10T01:41:20.274Z,23.34
2018-08-10T01:41:52.344Z,23.33
2018-08-10T01:42:24.414Z,23.32
2018-08-10T01:42:56.505Z,23.38
2018-08-10T01:43:28.566Z,23.40
2018-08-10T01:44:00.653Z,23.35
2018-08-10T01:44:32.698Z,23.33
2018-08-10T01:45:04.776Z,23.31
2018-08-10T01:45:36.823Z,23.27
2018-08-10T01:46:08.876Z,23.21
2018-08-10T01:46:40.958Z,23.10
2018-08-10T01:47:13.016Z,23.11
2018-08-10T01:47:45.098Z,23.10
2018-08-10T01:48:17.153Z,23.06
2018-08-10T01:48:49.234Z,23.06
2018-08-10T01:49:21.277Z,23.14
2018-08-10T01:49:53.358Z,23.18
2018-08-10T01:50:25.508Z,23.26
2018-08-10T01:50:57.553Z,23.28
2018-08-10T01:51:29.610Z,23.29
2018-08-10T01:52:01.675Z,23.33
2018-08-10T01:52:33.746Z,23.29
2018-08-10T01:53:05.817Z,23.30
2018-08-10T01:53:37.883Z,23.35
2018-08-10T01:54:09.982Z,23.35
2018-08-10T01:54:42.113Z,23.41
2018-08-10T01:55:14.154Z,23.43
2018-08-10T01:55:46.209Z,23.45
2018-08-10T01:56:18.278Z,23.46
2018-08-10T01:56:50.332Z,23.46
2018-08-10T01:57:22.403Z,23.43
2018-08-10T01:57:54.489Z,23.39
2018-08-10T01:58:26.553Z,23.41
2018-08-10T01:58:58.779Z,23.37
2018-08-10T01:59:30.857Z,23.40
2018-08-10T02:00:02.969Z,23.40
2018-08-10T02:00:35.030Z,23.33
2018-08-10T02:01:07.100Z,23.37
2018-08-10T02:01:39.167Z,23.39
2018-08-10T02:02:11.224Z,23.36
2018-08-10T02:02:43.290Z,23.39
2018-08-10T02:03:15.341Z,23.38
2018-08-10T02:03:47.394Z,23.36
2018-08-10T02:04:19.459Z,23.28
2018-08-10T02:04:51.520Z,23.29
2018-08-10T02:05:23.601Z,23.30
2018-08-10T02:05:55.679Z,23.26
2018-08-10T02:06:27.749Z,23.28
2018-08-10T02:06:59.808Z,23.27
2018-08-10T02:07:31.872Z,23.25
2018-08-10T02:08:03.928Z,23.21
2018-08-10T02:08:36.013Z,23.20
2018-08-10T02:09:08.101Z,23.19
2018-08-10T02:09:40.177Z,23.27
2018-08-10T02:10:12.266Z,23.31
2018-08-10T02:10:44.349Z,23.35
2018-08-10T02:11:16.413Z,23.39
2018-08-10T02:11:48.472Z,23.37
2018-08-10T02:12:20.519Z,23.34
2018-08-10T02:12:52.579Z,23.37
2018-08-10T02:13:24.638Z,23.43
2018-08-10T02:13:56.710Z,23.39
2018-08-10T02:14:28.784Z,23.30
2018-08-10T02:15:00.841Z,23.26
2018-08-10T02:15:32.911Z,23.26
2018-08-10T02:16:04.977Z,23.26
2018-08-10T02:16:37.063Z,23.25
2018-08-10T02:17:09.106Z,23.16
2018-08-10T02:17:41.172Z,23.18
2018-08-10T02:18:13.226Z,23.17
2018-08-10T02:18:45.310Z,23.20
2018-08-10T02:19:17.370Z,23.21
2018-08-10T02:19:49.434Z,23.24
2018-08-10T02:20:21.529Z,23.27
2018-08-10T02:20:53.586Z,23.30
2018-08-10T02:21:25.741Z,23.31
2018-08-10T02:21:57.837Z,23.32
2018-08-10T02:22:29.892Z,23.34
2018-08-10T02:23:01.963Z,23.34
2018-08-10T02:23:34.032Z,23.39
2018-08-10T02:24:06.077Z,23.46
2018-08-10T02:24:38.191Z,23.51
2018-08-10T02:25:10.199Z,23.52
2018-08-10T02:25:42.348Z,23.47
2018-08-10T02:26:14.383Z,23.41
2018-08-10T02:26:46.447Z,23.38
2018-08-10T02:27:18.501Z,23.39
2018-08-10T02:27:50.558Z,23.40
2018-08-10T02:28:22.632Z,23.32
2018-08-10T02:28:54.689Z,23.31
2018-08-10T02:29:26.760Z,23.31
2018-08-10T02:29:58.834Z,23.34
2018-08-10T02:30:30.877Z,23.28
2018-08-10T02:31:02.953Z,23.27
2018-08-10T02:31:35.041Z,23.23
2018-08-10T02:32:07.130Z,23.20
2018-08-10T02:32:39.185Z,23.17
2018-08-10T02:33:11.254Z,23.18
2018-08-10T02:33:43.314Z,23.18
2018-08-10T02:34:15.384Z,23.17
2018-08-10T02:34:47.429Z,23.14
2018-08-10T02:35:19.494Z,23.16
2018-08-10T02:35:51.559Z,23.15
2018-08-10T02:36:23.617Z,23.16
2018-08-10T02:36:55.718Z,23.20
2018-08-10T02:37:27.777Z,23.20
2018-08-10T02:37:59.829Z,23.24
2018-08-10T02:38:31.890Z,23.27
2018-08-10T02:39:03.953Z,23.29
2018-08-10T02:39:36.010Z,23.30
2018-08-10T02:40:08.069Z,23.27
2018-08-10T02:40:40.125Z,23.27
2018-08-10T02:41:12.199Z,23.28
2018-08-10T02:41:44.276Z,23.31
2018-08-10T02:42:16.374Z,23.31
2018-08-10T02:42:48.441Z,23.37
2018-08-10T02:43:20.517Z,23.48
2018-08-10T02:43:52.574Z,23.51
2018-08-10T02:44:24.663Z,23.50
2018-08-10T02:44:56.727Z,23.48
2018-08-10T02:45:28.793Z,23.44
2018-08-10T02:46:00.856Z,23.40
2018-08-10T02:46:32.910Z,23.38
2018-08-10T02:47:04.979Z,23.45
2018-08-10T02:47:37.083Z,23.33
2018-08-10T02:48:09.137Z,23.31
2018-08-10T02:48:41.202Z,23.29
2018-08-10T02:49:13.258Z,23.30
2018-08-10T02:49:45.321Z,23.29
2018-08-10T02:50:17.373Z,23.29
2018-08-10T02:50:49.448Z,23.36
2018-08-10T02:51:21.523Z,23.38
2018-08-10T02:51:53.584Z,23.42
2018-08-10T02:52:25.667Z,23.40
2018-08-10T02:52:57.934Z,23.42
2018-08-10T02:53:29.998Z,23.40
2018-08-10T02:54:02.101Z,23.40
2018-08-10T02:54:34.145Z,23.40
2018-08-10T02:55:06.209Z,23.39
2018-08-10T02:55:38.278Z,23.40
2018-08-10T02:56:10.329Z,23.36
2018-08-10T02:56:42.397Z,23.38
2018-08-10T02:57:14.516Z,23.37
2018-08-10T02:57:46.571Z,23.41
2018-08-10T02:58:18.632Z,23.46
2018-08-10T02:58:50.692Z,23.48
2018-08-10T02:59:22.777Z,23.52
2018-08-10T02:59:54.844Z,23.52
2018-08-10T03:00:26.897Z,23.50
2018-08-10T03:00:58.957Z,23.49
2018-08-10T03:01:31.019Z,23.47
2018-08-10T03:02:03.081Z,23.41
2018-08-10T03:02:35.143Z,23.48
2018-08-10T03:03:07.193Z,23.55
2018-08-10T03:03:39.287Z,23.60
2018-08-10T03:04:11.346Z,23.63
2018-08-10T03:04:43.445Z,23.61
2018-08-10T03:05:15.518Z,23.57
2018-08-10T03:05:47.565Z,23.59
2018-08-10T03:06:19.629Z,23.66
2018-08-10T03:06:51.694Z,23.70
2018-08-10T03:07:23.760Z,23.69
2018-08-10T03:07:55.832Z,23.61
2018-08-10T03:08:27.882Z,23.52
2018-08-10T03:08:59.970Z,23.44
2018-08-10T03:09:32.040Z,23.39
2018-08-10T03:10:04.101Z,23.34
2018-08-10T03:10:36.164Z,23.36
2018-08-10T03:11:08.227Z,23.39
2018-08-10T03:11:40.301Z,23.41
2018-08-10T03:12:12.362Z,23.44
2018-08-10T03:12:44.420Z,23.38
2018-08-10T03:13:16.506Z,23.42
2018-08-10T03:13:48.561Z,23.45
2018-08-10T03:14:20.648Z,23.41
2018-08-10T03:14:52.737Z,23.41
2018-08-10T03:15:24.805Z,23.34
2018-08-10T03:15:56.880Z,23.33
2018-08-10T03:16:28.942Z,23.34
2018-08-10T03:17:01.004Z,23.35
2018-08-10T03:17:33.074Z,23.40
2018-08-10T03:18:05.126Z,23.41
2018-08-10T03:18:37.192Z,23.45
2018-08-10T03:19:09.246Z,23.49
2018-08-10T03:19:41.313Z,23.56
2018-08-10T03:20:13.384Z,23.56
2018-08-10T03:20:45.453Z,23.56
2018-08-10T03:21:17.510Z,23.54
2018-08-10T03:21:49.566Z,23.55
2018-08-10T03:22:21.632Z,23.56
2018-08-10T03:22:53.722Z,23.61
2018-08-10T03:23:25.787Z,23.63
2018-08-10T03:23:57.849Z,23.62
2018-08-10T03:24:29.964Z,23.59
2018-08-10T03:25:02.121Z,23.59
2018-08-10T03:25:34.170Z,23.56
2018-08-10T03:26:06.237Z,23.59
2018-08-10T03:26:38.323Z,23.59
2018-08-10T03:27:10.405Z,23.60
2018-08-10T03:27:42.485Z,23.62
2018-08-10T03:28:14.566Z,23.65
2018-08-10T03:28:46.632Z,23.72
2018-08-10T03:29:18.700Z,23.73
2018-08-10T03:29:50.754Z,23.71
2018-08-10T03:30:22.817Z,23.65
2018-08-10T03:30:54.951Z,23.60
2018-08-10T03:31:26.999Z,23.60
2018-08-10T03:31:59.059Z,23.65
2018-08-10T03:32:31.130Z,23.75
2018-08-10T03:33:03.199Z,23.81
2018-08-10T03:33:35.252Z,23.84
2018-08-10T03:34:07.310Z,23.85
2018-08-10T03:34:39.389Z,23.84
2018-08-10T03:35:11.447Z,23.88
2018-08-10T03:35:43.666Z,23.92
2018-08-10T03:36:15.753Z,23.93
2018-08-10T03:36:47.805Z,23.93
2018-08-10T03:37:19.889Z,24.00
2018-08-10T03:37:51.974Z,24.05
2018-08-10T03:38:24.023Z,24.07
2018-08-10T03:38:56.085Z,24.07
2018-08-10T03:39:28.141Z,23.99
2018-08-10T03:40:00.213Z,23.95
2018-08-10T03:40:32.279Z,23.93
2018-08-10T03:41:04.381Z,23.93
2018-08-10T03:41:36.445Z,23.91
2018-08-10T03:42:08.580Z,23.91
2018-08-10T03:42:40.682Z,23.93
2018-08-10T03:43:12.755Z,23.94
2018-08-10T03:43:44.806Z,23.93
2018-08-10T03:44:16.881Z,23.92
2018-08-10T03:44:48.938Z,23.92
2018-08-10T03:45:21.011Z,23.90
2018-08-10T03:45:53.104Z,23.85
2018-08-10T03:46:25.178Z,23.84
2018-08-10T03:46:57.225Z,23.86
2018-08-10T03:47:29.291Z,23.87
2018-08-10T03:48:01.349Z,23.86
2018-08-10T03:48:33.414Z,23.82
2018-08-10T03:49:05.496Z,23.77
2018-08-10T03:49:37.543Z,23.72
2018-08-10T03:50:09.611Z,23.68
2018-08-10T03:50:41.685Z,23.63
2018-08-10T03:51:13.737Z,23.59
2018-08-10T03:51:45.813Z,23.60
2018-08-10T03:52:17.879Z,23.62
2018-08-10T03:52:49.942Z,23.64
2018-08-10T03:53:22.007Z,23.68
2018-08-10T03:53:54.138Z,23.73
2018-08-10T03:54:26.188Z,23.74
2018-08-10T03:54:58.342Z,23.74
2018-08-10T03:55:30.385Z,23.76
2018-08-10T03:56:02.452Z,23.74
2018-08-10T03:56:34.517Z,23.76
2018-08-10T03:57:06.578Z,23.79
2018-08-10T03:57:38.640Z,23.82
2018-08-10T03:58:10.706Z,23.81
2018-08-10T03:58:42.785Z,23.82
2018-08-10T03:59:14.847Z,23.81
2018-08-10T03:59:46.914Z,23.83
2018-08-10T04:00:18.981Z,23.86
2018-08-10T04:00:51.074Z,23.90
2018-08-10T04:01:23.121Z,23.92
2018-08-10T04:01:55.209Z,23.97
2018-08-10T04:02:27.248Z,23.98
2018-08-10T04:02:59.321Z,23.99
2018-08-10T04:03:31.385Z,23.99
2018-08-10T04:04:03.440Z,23.96
2018-08-10T04:04:35.501Z,23.95
2018-08-10T04:05:07.569Z,23.97
2018-08-10T04:05:39.629Z,24.00
2018-08-10T04:06:11.680Z,24.00
2018-08-10T04:06:43.740Z,23.99
2018-08-10T04:07:15.821Z,23.96
2018-08-10T04:07:47.879Z,23.94
2018-08-10T04:08:19.949Z,23.90
2018-08-10T04:08:52.039Z,23.85
2018-08-10T04:09:24.132Z,23.82
2018-08-10T04:09:56.201Z,23.79
2018-08-10T04:10:28.274Z,23.73
2018-08-10T04:11:00.333Z,23.70
2018-08-10T04:11:32.398Z,23.68
2018-08-10T04:12:04.465Z,23.64
2018-08-10T04:12:36.541Z,23.61
2018-08-10T04:13:08.605Z,23.58
2018-08-10T04:13:40.651Z,23.59
2018-08-10T04:14:12.725Z,23.63
2018-08-10T04:14:44.809Z,23.63
2018-08-10T04:15:16.876Z,23.65
2018-08-10T04:15:48.930Z,23.70
2018-08-10T04:16:20.999Z,23.73
2018-08-10T04:16:53.069Z,23.72
2018-08-10T04:17:25.131Z,23.73
2018-08-10T04:17:57.189Z,23.80
2018-08-10T04:18:29.241Z,23.90
2018-08-10T04:19:01.313Z,24.02
2018-08-10T04:19:33.390Z,24.14
2018-08-10T04:20:05.464Z,24.20
2018-08-10T04:20:37.532Z,24.26
2018-08-10T04:21:09.618Z,24.30
2018-08-10T04:21:41.691Z,24.31
2018-08-10T04:22:13.757Z,24.34
2018-08-10T04:22:45.822Z,24.32
2018-08-10T04:23:17.893Z,24.31
2018-08-10T04:23:49.958Z,24.33
2018-08-10T04:24:22.027Z,24.34
2018-08-10T04:24:54.110Z,24.34
2018-08-10T04:25:26.188Z,24.35
2018-08-10T04:25:58.566Z,24.34
2018-08-10T04:26:30.611Z,24.34
2018-08-10T04:27:02.665Z,24.34
2018-08-10T04:27:34.732Z,24.33
2018-08-10T04:28:06.796Z,24.32
2018-08-10T04:28:38.874Z,24.29
2018-08-10T04:29:10.934Z,24.29
2018-08-10T04:29:43.024Z,24.31
2018-08-10T04:30:15.060Z,24.29
2018-08-10T04:30:47.144Z,24.27
2018-08-10T04:31:19.208Z,24.27
2018-08-10T04:31:51.271Z,24.30
2018-08-10T04:32:23.349Z,24.32
2018-08-10T04:32:55.437Z,24.35
2018-08-10T04:33:27.492Z,24.37
2018-08-10T04:33:59.552Z,24.40
2018-08-10T04:34:31.613Z,24.43
2018-08-10T04:35:03.677Z,24.45
2018-08-10T04:35:35.742Z,24.46
2018-08-10T04:36:07.794Z,24.49
2018-08-10T04:36:39.857Z,24.54
2018-08-10T04:37:11.918Z,24.58
2018-08-10T04:37:43.989Z,24.60
2018-08-10T04:38:16.058Z,24.63
2018-08-10T04:38:48.117Z,24.63
2018-08-10T04:39:20.179Z,24.63
2018-08-10T04:39:52.262Z,24.62
2018-08-10T04:40:24.327Z,24.63
2018-08-10T04:40:56.396Z,24.64
2018-08-10T04:41:28.469Z,24.65
2018-08-10T04:42:00.532Z,24.66
2018-08-10T04:42:32.600Z,24.68
2018-08-10T04:43:04.665Z,24.71
2018-08-10T04:43:36.721Z,24.70
2018-08-10T04:44:08.785Z,24.65
2018-08-10T04:44:40.845Z,24.61
2018-08-10T04:45:12.909Z,24.58
2018-08-10T04:45:44.957Z,24.55
2018-08-10T04:46:17.018Z,24.54
2018-08-10T04:46:49.078Z,24.53
2018-08-10T04:47:21.141Z,24.53
2018-08-10T04:47:53.211Z,24.54
2018-08-10T04:48:25.265Z,24.55
2018-08-10T04:48:57.372Z,24.51
2018-08-10T04:49:29.447Z,24.49
2018-08-10T04:50:01.513Z,24.48
2018-08-10T04:50:33.583Z,24.47
2018-08-10T04:51:05.658Z,24.48
2018-08-10T04:51:37.722Z,24.47
2018-08-10T04:52:09.785Z,24.49
2018-08-10T04:52:41.851Z,24.49
2018-08-10T04:53:13.908Z,24.51
2018-08-10T04:53:45.961Z,24.53
2018-08-10T04:54:18.046Z,24.54
2018-08-10T04:54:50.117Z,24.54
2018-08-10T04:55:22.225Z,24.57
2018-08-10T04:55:54.249Z,24.59
2018-08-10T04:56:26.304Z,24.60
2018-08-10T04:56:58.358Z,24.61
2018-08-10T04:57:30.425Z,24.63
2018-08-10T04:58:02.496Z,24.59
2018-08-10T04:58:34.565Z,24.56
2018-08-10T04:59:06.629Z,24.52
2018-08-10T04:59:38.698Z,24.51
2018-08-10T05:00:10.792Z,24.52
2018-08-10T05:00:42.874Z,24.55
2018-08-10T05:01:14.942Z,24.50
2018-08-10T05:01:46.993Z,24.49
2018-08-10T05:02:19.054Z,24.51
2018-08-10T05:02:51.145Z,24.53
2018-08-10T05:03:23.231Z,24.55
2018-08-10T05:03:55.276Z,24.58
2018-08-10T05:04:27.355Z,24.61
2018-08-10T05:04:59.421Z,24.63
2018-08-10T05:05:31.472Z,24.68
2018-08-10T05:06:03.561Z,24.65
2018-08-10T05:06:35.712Z,24.62
2018-08-10T05:07:07.761Z,24.57
2018-08-10T05:07:39.818Z,24.55
2018-08-10T05:08:11.872Z,24.53
2018-08-10T05:08:43.933Z,24.52
2018-08-10T05:09:15.996Z,24.51
2018-08-10T05:09:48.095Z,24.50
2018-08-10T05:10:20.134Z,24.47
2018-08-10T05:10:52.192Z,24.48
2018-08-10T05:11:24.257Z,24.47
2018-08-10T05:11:56.315Z,24.47
2018-08-10T05:12:28.393Z,24.47
2018-08-10T05:13:00.450Z,24.44
2018-08-10T05:13:32.517Z,24.42
2018-08-10T05:14:04.574Z,24.42
2018-08-10T05:14:36.684Z,24.44
2018-08-10T05:15:08.750Z,24.45
2018-08-10T05:15:40.845Z,24.46
2018-08-10T05:16:12.913Z,24.49
2018-08-10T05:16:44.998Z,24.49
2018-08-10T05:17:17.077Z,24.48
2018-08-10T05:17:49.161Z,24.49
2018-08-10T05:18:21.215Z,24.49
2018-08-10T05:18:53.293Z,24.49
2018-08-10T05:19:25.351Z,24.50
2018-08-10T05:19:57.400Z,24.52
2018-08-10T05:20:29.467Z,24.52
2018-08-10T05:21:01.524Z,24.52
2018-08-10T05:21:33.594Z,24.52
2018-08-10T05:22:05.716Z,24.53
2018-08-10T05:22:37.784Z,24.53
2018-08-10T05:23:09.868Z,24.51
2018-08-10T05:23:41.974Z,24.52
2018-08-10T05:24:14.013Z,24.50
2018-08-10T05:24:46.091Z,24.51
2018-08-10T05:25:18.133Z,24.53
2018-08-10T05:25:50.221Z,24.53
2018-08-10T05:26:22.260Z,24.57
2018-08-10T05:26:54.313Z,24.59
2018-08-10T05:27:26.451Z,24.61
2018-08-10T05:27:58.504Z,24.60
2018-08-10T05:28:30.560Z,24.59
2018-08-10T05:29:02.626Z,24.59
2018-08-10T05:29:34.694Z,24.56
2018-08-10T05:30:06.763Z,24.54
2018-08-10T05:30:38.822Z,24.54
2018-08-10T05:31:10.890Z,24.55
2018-08-10T05:31:42.946Z,24.55
2018-08-10T05:32:15.013Z,24.56
2018-08-10T05:32:47.083Z,24.57
2018-08-10T05:33:19.196Z,24.58
2018-08-10T05:33:51.449Z,24.61
2018-08-10T05:34:23.509Z,24.61
2018-08-10T05:34:55.633Z,24.61
2018-08-10T05:35:27.632Z,24.61
2018-08-10T05:35:59.690Z,24.60
2018-08-10T05:36:31.761Z,24.60
2018-08-10T05:37:03.961Z,24.59
2018-08-10T05:37:36.599Z,24.56
2018-08-10T05:38:08.702Z,24.54
2018-08-10T05:38:40.758Z,24.52
2018-08-10T05:39:12.817Z,24.44
2018-08-10T05:39:44.874Z,24.41
2018-08-10T05:40:16.933Z,24.37
2018-08-10T05:40:49.004Z,24.31
2018-08-10T05:41:21.074Z,24.29
2018-08-10T05:41:53.173Z,24.28
2018-08-10T05:42:25.229Z,24.29
2018-08-10T05:42:57.329Z,24.30
2018-08-10T05:43:29.406Z,24.31
2018-08-10T05:44:01.601Z,24.32
2018-08-10T05:44:33.617Z,24.27
2018-08-10T05:45:05.685Z,24.25
2018-08-10T05:45:37.765Z,24.25
2018-08-10T05:46:09.829Z,24.25
2018-08-10T05:46:41.905Z,24.27
2018-08-10T05:47:14.105Z,24.25
2018-08-10T05:47:46.164Z,24.28
2018-08-10T05:48:18.230Z,24.30
2018-08-10T05:48:50.303Z,24.33
2018-08-10T05:49:22.379Z,24.33
2018-08-10T05:49:54.459Z,24.26
2018-08-10T05:50:26.502Z,24.23
2018-08-10T05:50:58.587Z,24.23
2018-08-10T05:51:30.673Z,24.27
2018-08-10T05:52:02.730Z,24.29
2018-08-10T05:52:34.844Z,24.29
2018-08-10T05:53:06.860Z,24.29
2018-08-10T05:53:38.917Z,24.28
2018-08-10T05:54:10.985Z,24.28
2018-08-10T05:54:43.036Z,24.26
2018-08-10T05:55:15.117Z,24.26
2018-08-10T05:55:47.182Z,24.25
2018-08-10T05:56:19.263Z,24.25
2018-08-10T05:56:51.315Z,24.28
2018-08-10T05:57:23.409Z,24.30
2018-08-10T05:57:55.441Z,24.32
2018-08-10T05:58:27.515Z,24.34
2018-08-10T05:58:59.571Z,24.33
2018-08-10T05:59:31.650Z,24.35
2018-08-10T06:00:03.713Z,24.37
2018-08-10T06:00:35.806Z,24.35
2018-08-10T06:01:07.873Z,24.31
2018-08-10T06:01:39.955Z,24.33
2018-08-10T06:02:12.017Z,24.30
2018-08-10T06:02:44.080Z,24.22
2018-08-10T06:03:16.143Z,24.20
2018-08-10T06:03:48.266Z,24.15
2018-08-10T06:04:20.263Z,24.14
2018-08-10T06:04:52.310Z,24.14
2018-08-10T06:05:24.384Z,24.16
2018-08-10T06:05:56.469Z,24.19
2018-08-10T06:06:28.517Z,24.17
2018-08-10T06:07:00.590Z,24.19
2018-08-10T06:07:32.641Z,24.22
2018-08-10T06:08:04.710Z,24.23
2018-08-10T06:08:36.764Z,24.20
2018-08-10T06:09:08.830Z,24.17
2018-08-10T06:09:40.896Z,24.13
2018-08-10T06:10:12.958Z,24.05
2018-08-10T06:10:45.019Z,24.01
2018-08-10T06:11:17.093Z,23.98
2018-08-10T06:11:49.158Z,23.96
2018-08-10T06:12:21.214Z,23.95
2018-08-10T06:12:53.282Z,23.95
2018-08-10T06:13:25.332Z,23.94
2018-08-10T06:13:57.417Z,23.86
2018-08-10T06:14:29.472Z,23.79
2018-08-10T06:15:01.546Z,23.79
2018-08-10T06:15:33.670Z,23.79
2018-08-10T06:16:05.696Z,23.76
2018-08-10T06:16:37.763Z,23.76
2018-08-10T06:17:09.898Z,23.80
2018-08-10T06:17:41.960Z,23.84
2018-08-10T06:18:14.065Z,23.83
2018-08-10T06:18:46.106Z,23.76
2018-08-10T06:19:18.273Z,23.69
2018-08-10T06:19:50.333Z,23.69
2018-08-10T06:20:22.345Z,23.72
2018-08-10T06:20:54.422Z,23.79
2018-08-10T06:21:26.494Z,23.81
2018-08-10T06:21:58.573Z,23.80
2018-08-10T06:22:30.634Z,23.77
2018-08-10T06:23:02.711Z,23.73
2018-08-10T06:23:34.771Z,23.68
2018-08-10T06:24:06.971Z,23.66
2018-08-10T06:24:39.075Z,23.65
2018-08-10T06:25:11.248Z,23.61
2018-08-10T06:25:43.260Z,23.60
2018-08-10T06:26:15.432Z,23.61
2018-08-10T06:26:47.496Z,23.60
2018-08-10T06:27:19.557Z,23.59
2018-08-10T06:27:51.641Z,23.60
2018-08-10T06:28:23.696Z,23.55
2018-08-10T06:28:55.749Z,23.59
2018-08-10T06:29:27.807Z,23.57
2018-08-10T06:29:59.857Z,23.56
2018-08-10T06:30:31.908Z,23.59
2018-08-10T06:31:03.960Z,23.61
2018-08-10T06:31:36.059Z,23.57
2018-08-10T06:32:08.176Z,23.51
2018-08-10T06:32:40.245Z,23.47
2018-08-10T06:33:12.318Z,23.41
2018-08-10T06:33:44.394Z,23.38
2018-08-10T06:34:16.473Z,23.37
2018-08-10T06:34:48.530Z,23.42
2018-08-10T06:35:20.587Z,23.45
2018-08-10T06:35:52.653Z,23.42
2018-08-10T06:36:24.714Z,23.39
2018-08-10T06:36:56.873Z,23.47
2018-08-10T06:37:28.954Z,23.44
2018-08-10T06:38:01.251Z,23.37
2018-08-10T06:38:33.348Z,23.29
2018-08-10T06:39:05.406Z,23.18
2018-08-10T06:39:37.480Z,23.18
2018-08-10T06:40:09.534Z,23.19
2018-08-10T06:40:41.605Z,23.20
2018-08-10T06:41:13.658Z,23.21
2018-08-10T06:41:45.768Z,23.19
2018-08-10T06:42:17.833Z,23.15
2018-08-10T06:42:49.918Z,23.16
2018-08-10T06:43:21.983Z,23.19
2018-08-10T06:43:54.045Z,23.20
2018-08-10T06:44:26.103Z,23.21
2018-08-10T06:44:58.273Z,23.14
2018-08-10T06:45:30.266Z,23.11
2018-08-10T06:46:02.332Z,23.06
2018-08-10T06:46:34.400Z,23.06
2018-08-10T06:47:06.460Z,23.02
2018-08-10T06:47:38.601Z,23.04
2018-08-10T06:48:10.651Z,23.06
2018-08-10T06:48:42.731Z,23.11
2018-08-10T06:49:14.810Z,23.11
2018-08-10T06:49:46.901Z,23.04
2018-08-10T06:50:19.000Z,23.03
2018-08-10T06:50:51.000Z,23.01
2018-08-10T06:51:23.073Z,23.05
2018-08-10T06:51:55.165Z,23.05
2018-08-10T06:52:27.251Z,23.05
2018-08-10T06:52:59.321Z,23.05